Tegucigalpa, Honduras
Current Conditions -  °F | °C
As of 4:00 AM on Thursday 27 Nov 2014 (Local Time) from MHTG Reporting Station
Drizzle Drizzle  
Wind Chill: 61°   Ceiling: 1600
Heat Index: 61°   Visibility: 4mi
Dew Point: 61°   Wind: 16mph
Humidity: 100%   Direction: 360°N
Pressure: 30.12"   Gusts: NA
Location:  14.09°N, 87.22°W
Report Text: MHTG 271000Z 36014KT 6000 -DZ FEW007 BKN016 16/16 Q1020 A3012NOSIG
Loading
Personal Weather Stations






























Interactive Weather Map New forecast layout! Learn more

10-Day Weather Forecast

Advertisements
Track Severe Weather on mobile